Time;durP1;ratioP1;P1;durP2;ratioP2;P2;SDS_P1;SDS_P2;PMS_P1;PMS_P2;Temp;Humidity;BMP_temperature;BMP_pressure;BME280_temperature;BME280_humidity;BME280_pressure;Samples;Min_cycle;Max_cycle;Signal;HPM_P1;HPM_P2
2021/05/23 00:00:48;;;;;;;8.97;5.70;;;9.10;99.90;;;;;;5013751;28;20226;-84
2021/05/23 00:03:20;;;;;;;6.70;5.67;;;9.10;99.90;;;;;;5004081;28;20720;-82
2021/05/23 00:05:58;;;;;;;5.63;5.03;;;9.10;99.90;;;;;;5001656;28;20217;-85
2021/05/23 00:08:31;;;;;;;5.90;5.20;;;9.10;99.90;;;;;;4991096;28;20720;-84
2021/05/23 00:11:02;;;;;;;6.77;5.37;;;9.10;99.90;;;;;;4989313;28;20241;-84
2021/05/23 00:13:33;;;;;;;6.83;5.20;;;9.20;99.90;;;;;;4982387;28;20652;-81
2021/05/23 00:16:03;;;;;;;6.50;5.40;;;9.20;99.90;;;;;;5000382;28;20236;-82
2021/05/23 00:18:33;;;;;;;9.07;5.33;;;9.20;99.90;;;;;;5011787;28;20222;-83
2021/05/23 00:21:02;;;;;;;6.80;5.50;;;9.20;99.90;;;;;;5011366;28;20207;-82
2021/05/23 00:23:32;;;;;;;7.87;5.37;;;9.10;99.90;;;;;;5018623;28;20574;-82
2021/05/23 00:26:01;;;;;;;8.83;5.57;;;9.10;99.90;;;;;;5012785;28;20197;-82
2021/05/23 00:28:30;;;;;;;7.23;5.20;;;9.10;99.90;;;;;;4991487;28;20485;-83
2021/05/23 00:30:59;;;;;;;6.50;5.33;;;9.10;99.90;;;;;;4990064;28;20708;-84
2021/05/23 00:33:27;;;;;;;9.13;5.20;;;9.10;99.90;;;;;;4988236;28;20201;-84
2021/05/23 00:35:55;;;;;;;7.50;5.70;;;9.00;99.90;;;;;;4997147;28;20198;-82
2021/05/23 00:38:23;;;;;;;6.33;4.93;;;9.10;99.90;;;;;;5005776;28;20221;-83
2021/05/23 00:40:52;;;;;;;6.87;5.37;;;9.10;99.90;;;;;;4991751;28;20317;-84
2021/05/23 00:43:21;;;;;;;6.73;5.30;;;9.00;99.90;;;;;;4988143;28;20223;-85
2021/05/23 00:45:50;;;;;;;6.77;4.87;;;9.00;99.90;;;;;;4986103;28;20260;-83
2021/05/23 00:48:20;;;;;;;5.87;5.27;;;9.00;99.90;;;;;;4983091;28;20242;-83
2021/05/23 00:50:49;;;;;;;7.83;5.20;;;9.00;99.90;;;;;;4988165;28;20217;-84
2021/05/23 00:53:18;;;;;;;7.57;5.17;;;9.00;99.90;;;;;;4994740;28;20211;-86
2021/05/23 00:55:47;;;;;;;5.57;4.97;;;9.10;99.90;;;;;;5015493;28;20266;-86
2021/05/23 00:58:16;;;;;;;8.40;5.50;;;9.10;99.90;;;;;;5007839;28;20298;-85
2021/05/23 01:01:22;;;;;;;7.37;5.40;;;9.10;99.90;;;;;;4990915;28;20215;-85
2021/05/23 01:03:56;;;;;;;7.03;5.57;;;9.10;99.90;;;;;;4997650;28;20734;-85
2021/05/23 01:06:27;;;;;;;7.17;4.93;;;9.10;99.90;;;;;;4989174;28;20625;-84
2021/05/23 01:08:56;;;;;;;7.00;5.50;;;9.10;99.90;;;;;;4988403;28;20237;-84
2021/05/23 01:12:23;;;;;;;10.37;5.50;;;9.00;99.90;;;;;;4990358;28;20222;-83
2021/05/23 01:14:56;;;;;;;5.67;5.07;;;9.00;99.90;;;;;;4997292;28;20240;-85
2021/05/23 01:17:34;;;;;;;7.57;5.13;;;9.00;99.90;;;;;;4995317;28;20206;-82
2021/05/23 01:20:15;;;;;;;7.97;5.17;;;8.80;99.90;;;;;;4996549;28;20209;-83
2021/05/23 01:22:49;;;;;;;7.67;5.20;;;9.00;99.90;;;;;;4989114;28;20203;-84
2021/05/23 01:25:22;;;;;;;6.00;4.83;;;9.10;99.90;;;;;;4995913;28;20209;-82
2021/05/23 01:27:53;;;;;;;7.57;5.07;;;9.10;99.90;;;;;;5001441;28;20226;-82
2021/05/23 01:30:26;;;;;;;5.27;4.50;;;9.20;99.90;;;;;;4991215;28;20404;-83
2021/05/23 01:32:57;;;;;;;7.90;5.20;;;9.30;99.90;;;;;;5005753;28;20810;-82
2021/05/23 01:35:31;;;;;;;7.60;4.73;;;9.30;99.70;;;;;;5005686;28;20207;-83
2021/05/23 01:38:00;;;;;;;5.60;4.50;;;9.30;99.50;;;;;;4996659;28;20207;-83
2021/05/23 01:40:32;;;;;;;5.67;4.40;;;9.30;99.80;;;;;;4987901;28;20210;-83
2021/05/23 01:43:01;;;;;;;5.53;4.80;;;9.20;99.90;;;;;;4986614;28;20204;-85
2021/05/23 01:45:30;;;;;;;6.53;4.47;;;9.20;99.90;;;;;;4988123;28;20207;-83
2021/05/23 01:47:59;;;;;;;7.33;4.63;;;9.20;99.90;;;;;;4993346;28;20309;-82
2021/05/23 01:50:27;;;;;;;6.53;4.27;;;9.30;99.50;;;;;;4998113;28;20201;-84
2021/05/23 01:52:57;;;;;;;7.37;4.63;;;9.30;99.00;;;;;;5002561;28;20706;-82
2021/05/23 01:55:26;;;;;;;5.93;4.70;;;9.40;98.30;;;;;;5003192;28;20214;-84
2021/05/23 01:57:55;;;;;;;6.77;4.30;;;9.40;98.20;;;;;;4995932;28;20443;-84
2021/05/23 02:00:26;;;;;;;6.07;4.30;;;9.40;97.80;;;;;;5009032;28;20448;-84
2021/05/23 02:02:56;;;;;;;4.93;4.10;;;9.40;97.60;;;;;;5007579;28;20244;-83
2021/05/23 02:05:24;;;;;;;4.87;4.30;;;9.40;97.10;;;;;;4991482;28;20208;-84
2021/05/23 02:07:53;;;;;;;5.93;4.50;;;9.40;97.40;;;;;;4989079;28;20215;-83
2021/05/23 02:10:21;;;;;;;6.13;4.27;;;9.40;97.80;;;;;;4985543;28;20215;-84
2021/05/23 02:12:49;;;;;;;5.17;3.93;;;9.40;98.20;;;;;;4989432;28;20262;-85
2021/05/23 02:15:19;;;;;;;5.90;4.17;;;9.40;98.40;;;;;;4990421;28;20288;-86
2021/05/23 02:17:48;;;;;;;7.10;4.37;;;9.50;98.90;;;;;;4985754;28;20211;-84
2021/05/23 02:20:20;;;;;;;5.73;4.23;;;9.50;98.80;;;;;;4990839;28;21040;-85
2021/05/23 02:22:50;;;;;;;5.87;4.33;;;9.50;98.60;;;;;;4999857;28;20215;-83
2021/05/23 02:25:20;;;;;;;5.70;4.10;;;9.50;99.40;;;;;;4998209;28;20227;-84
2021/05/23 02:27:49;;;;;;;6.10;4.00;;;9.40;99.30;;;;;;4984760;28;20731;-84
2021/05/23 02:30:21;;;;;;;6.57;4.13;;;9.40;99.90;;;;;;4987001;28;20222;-84
2021/05/23 02:32:49;;;;;;;5.57;4.03;;;9.40;99.80;;;;;;4984396;28;20211;-82
2021/05/23 02:35:23;;;;;;;6.80;4.00;;;9.40;99.70;;;;;;4989168;28;20212;-84
2021/05/23 02:37:51;;;;;;;4.40;3.80;;;9.40;99.50;;;;;;4995844;28;20215;-83
2021/05/23 02:40:22;;;;;;;7.87;3.93;;;9.40;99.40;;;;;;4996960;28;20205;-82
2021/05/23 02:42:51;;;;;;;7.27;3.93;;;9.50;99.20;;;;;;4993068;28;20774;-83
2021/05/23 02:45:20;;;;;;;5.60;3.70;;;9.50;98.80;;;;;;4994888;28;20235;-83
2021/05/23 02:47:49;;;;;;;6.77;3.37;;;9.70;98.70;;;;;;4993570;28;20223;-85
2021/05/23 02:50:20;;;;;;;4.70;3.97;;;9.70;98.10;;;;;;4988260;28;20231;-84
2021/05/23 02:52:48;;;;;;;5.43;3.57;;;9.70;97.80;;;;;;4986954;28;21002;-83
2021/05/23 02:55:17;;;;;;;6.03;3.40;;;9.70;97.50;;;;;;4988367;28;20309;-82
2021/05/23 02:57:46;;;;;;;5.17;4.00;;;9.70;97.40;;;;;;4983562;28;20200;-83
2021/05/23 03:00:17;;;;;;;6.50;3.60;;;9.70;97.70;;;;;;4988078;28;20716;-82
2021/05/23 03:02:47;;;;;;;5.80;3.63;;;9.70;98.00;;;;;;4983264;28;20195;-83
2021/05/23 03:05:17;;;;;;;4.63;3.73;;;9.80;98.70;;;;;;4984716;28;20289;-83
2021/05/23 03:07:47;;;;;;;4.60;3.77;;;9.80;98.30;;;;;;4981659;28;20255;-83
2021/05/23 03:10:17;;;;;;;4.80;3.47;;;9.80;98.10;;;;;;4989651;28;20622;-83
2021/05/23 03:12:46;;;;;;;6.63;3.43;;;9.80;98.40;;;;;;4985176;28;20229;-83
2021/05/23 03:15:16;;;;;;;3.90;3.50;;;9.80;99.10;;;;;;4994593;28;20736;-82
2021/05/23 03:17:45;;;;;;;5.87;4.03;;;9.80;99.80;;;;;;4989954;28;20208;-83
2021/05/23 03:20:15;;;;;;;4.00;3.60;;;9.80;99.80;;;;;;5008567;28;20199;-82
2021/05/23 03:22:45;;;;;;;4.63;3.43;;;9.90;99.90;;;;;;4999309;28;20220;-82
2021/05/23 03:25:16;;;;;;;4.07;3.40;;;10.00;99.30;;;;;;4992588;28;20239;-83
2021/05/23 03:27:45;;;;;;;4.33;3.10;;;10.00;98.80;;;;;;4994795;28;20630;-83
2021/05/23 03:30:16;;;;;;;4.53;3.30;;;10.10;98.30;;;;;;4985777;28;20200;-82
2021/05/23 03:32:45;;;;;;;4.07;3.30;;;10.10;98.50;;;;;;4984208;28;20208;-83
2021/05/23 03:35:14;;;;;;;4.50;3.03;;;10.10;98.20;;;;;;4989103;28;20306;-82
2021/05/23 03:37:42;;;;;;;7.03;3.77;;;10.20;97.70;;;;;;4991876;28;20708;-83
2021/05/23 03:40:14;;;;;;;3.50;3.20;;;10.10;97.90;;;;;;4992475;28;20208;-85
2021/05/23 03:42:44;;;;;;;3.97;3.20;;;10.00;97.10;;;;;;4990475;28;20434;-82
2021/05/23 03:45:13;;;;;;;5.37;3.53;;;10.10;97.30;;;;;;4988411;28;20356;-83
2021/05/23 03:47:41;;;;;;;6.10;3.70;;;10.10;97.20;;;;;;5010115;28;20223;-83
2021/05/23 03:50:13;;;;;;;6.17;3.40;;;10.10;97.10;;;;;;4999394;28;20212;-83
2021/05/23 03:52:41;;;;;;;4.97;3.53;;;10.10;96.90;;;;;;4986586;28;20369;-83
2021/05/23 03:55:09;;;;;;;4.43;3.43;;;10.10;96.80;;;;;;4980721;28;20341;-83
2021/05/23 03:57:38;;;;;;;5.97;3.43;;;10.10;96.90;;;;;;4985292;28;20698;-83
2021/05/23 04:00:09;;;;;;;5.63;3.50;;;10.10;97.50;;;;;;4996624;28;20207;-84
2021/05/23 04:02:37;;;;;;;5.60;3.83;;;10.20;97.30;;;;;;5001486;28;20204;-85
2021/05/23 04:05:06;;;;;;;4.67;3.60;;;10.30;97.60;;;;;;5005282;28;20853;-84
2021/05/23 04:07:35;;;;;;;6.33;3.63;;;10.30;96.60;;;;;;4996316;28;20275;-84
2021/05/23 04:10:06;;;;;;;5.87;3.50;;;10.40;96.20;;;;;;5005439;28;20201;-82
2021/05/23 04:12:37;;;;;;;6.30;3.63;;;10.50;95.40;;;;;;4989707;28;20227;-82
2021/05/23 04:15:07;;;;;;;5.37;3.47;;;10.50;95.00;;;;;;4998077;28;20219;-84
2021/05/23 04:17:35;;;;;;;4.63;3.47;;;10.50;95.00;;;;;;5011414;28;20184;-83
2021/05/23 04:20:05;;;;;;;3.43;3.10;;;10.50;95.40;;;;;;5001070;28;20291;-83
2021/05/23 04:22:33;;;;;;;4.07;3.33;;;10.50;95.60;;;;;;5008648;28;20184;-84
2021/05/23 04:25:09;;;;;;;5.40;3.90;;;10.50;95.40;;;;;;4998987;28;20228;-83
2021/05/23 04:27:38;;;;;;;4.63;3.10;;;10.40;95.00;;;;;;4992053;28;20227;-81
2021/05/23 04:30:08;;;;;;;5.03;3.50;;;10.60;94.90;;;;;;4998148;28;20201;-82
2021/05/23 04:32:37;;;;;;;6.47;4.00;;;10.60;95.10;;;;;;5003047;28;20262;-84
2021/05/23 04:35:06;;;;;;;5.07;3.90;;;10.60;95.30;;;;;;5000622;28;20218;-83
2021/05/23 04:37:35;;;;;;;5.97;3.50;;;10.70;94.70;;;;;;5004240;28;20218;-84
2021/05/23 04:40:06;;;;;;;5.03;3.97;;;10.70;94.90;;;;;;4997969;28;20651;-83
2021/05/23 04:42:34;;;;;;;6.23;4.03;;;10.70;94.80;;;;;;4994790;28;20452;-84
2021/05/23 04:45:23;;;;;;;4.93;3.50;;;10.70;95.20;;;;;;4998871;28;20270;-84
2021/05/23 04:47:51;;;;;;;5.97;3.77;;;10.80;94.90;;;;;;5007054;28;20295;-84
2021/05/23 04:50:19;;;;;;;5.43;3.60;;;10.80;95.50;;;;;;5010922;28;20255;-83
2021/05/23 04:52:48;;;;;;;4.13;3.53;;;11.00;95.90;;;;;;5007661;28;20507;-83
2021/05/23 04:55:16;;;;;;;5.97;3.57;;;11.20;95.00;;;;;;5014783;28;20290;-84
2021/05/23 04:57:44;;;;;;;7.47;3.47;;;11.40;93.30;;;;;;5022638;28;20200;-86
2021/05/23 05:00:14;;;;;;;5.07;3.57;;;11.80;93.20;;;;;;5020669;28;20271;-83
2021/05/23 05:02:42;;;;;;;4.57;3.30;;;11.90;92.00;;;;;;5019693;28;20253;-84
2021/05/23 05:05:12;;;;;;;3.80;3.17;;;12.00;91.80;;;;;;5016138;28;20236;-83
2021/05/23 05:07:42;;;;;;;3.27;2.97;;;12.10;91.60;;;;;;5001911;28;20415;-83
2021/05/23 05:10:11;;;;;;;4.83;3.03;;;12.20;91.40;;;;;;5017610;28;20188;-81
2021/05/23 05:12:41;;;;;;;4.80;3.03;;;12.40;90.60;;;;;;5014366;28;20191;-83
2021/05/23 05:15:10;;;;;;;3.43;3.07;;;12.60;90.60;;;;;;5019806;28;20208;-83
2021/05/23 05:17:38;;;;;;;3.50;3.00;;;12.70;90.10;;;;;;5014035;28;20184;-84
2021/05/23 05:20:10;;;;;;;5.17;3.13;;;12.90;90.10;;;;;;5009514;28;20208;-83
2021/05/23 05:22:40;;;;;;;4.23;2.90;;;13.00;89.90;;;;;;5004631;28;20231;-84
2021/05/23 05:25:09;;;;;;;4.57;2.83;;;13.20;89.40;;;;;;5008228;28;20433;-83
2021/05/23 05:27:37;;;;;;;3.60;2.47;;;13.30;89.50;;;;;;4995053;28;20210;-83
2021/05/23 05:30:08;;;;;;;4.00;2.50;;;13.40;87.30;;;;;;4998335;28;20208;-84
2021/05/23 05:32:36;;;;;;;4.13;2.27;;;13.50;86.80;;;;;;5003814;28;20593;-84
2021/05/23 05:35:05;;;;;;;3.83;2.53;;;13.60;87.40;;;;;;5005388;28;20636;-83
2021/05/23 05:37:33;;;;;;;3.50;2.50;;;13.70;86.30;;;;;;5004528;28;20459;-84
2021/05/23 05:40:03;;;;;;;4.90;2.60;;;13.80;87.10;;;;;;5003313;28;20288;-84
2021/05/23 05:42:32;;;;;;;3.33;2.50;;;13.90;85.30;;;;;;5003460;28;20196;-84
2021/05/23 05:45:01;;;;;;;2.47;2.20;;;14.00;84.30;;;;;;5002097;28;20230;-80
2021/05/23 05:47:30;;;;;;;2.63;2.20;;;14.10;84.10;;;;;;5004587;28;20286;-82
2021/05/23 05:49:59;;;;;;;3.33;2.17;;;14.20;84.20;;;;;;5005556;28;20223;-82
2021/05/23 05:52:27;;;;;;;2.97;2.40;;;14.30;83.60;;;;;;5001995;28;20207;-83
2021/05/23 05:54:55;;;;;;;2.53;2.33;;;14.30;83.60;;;;;;5002557;28;20199;-82
2021/05/23 05:57:23;;;;;;;2.77;2.03;;;14.40;83.60;;;;;;5009833;28;20191;-83
2021/05/23 05:59:52;;;;;;;3.20;2.20;;;14.40;83.00;;;;;;5006411;28;20207;-83
2021/05/23 06:02:19;;;;;;;3.57;2.30;;;14.50;83.00;;;;;;5009435;28;20209;-84
2021/05/23 06:04:50;;;;;;;3.23;2.20;;;14.50;83.00;;;;;;5008585;28;20239;-85
2021/05/23 06:07:19;;;;;;;5.83;2.27;;;14.60;82.90;;;;;;5013519;28;20487;-83
2021/05/23 06:09:47;;;;;;;2.87;1.80;;;14.60;82.30;;;;;;5010119;28;20453;-83
2021/05/23 06:12:17;;;;;;;2.60;2.10;;;14.70;82.40;;;;;;5001162;28;20328;-85
2021/05/23 06:14:46;;;;;;;4.67;2.47;;;14.80;82.30;;;;;;5000580;28;20277;-84
2021/05/23 06:17:14;;;;;;;3.63;1.83;;;14.90;81.90;;;;;;5005795;28;20286;-82
2021/05/23 06:19:42;;;;;;;2.57;2.00;;;14.90;81.50;;;;;;5008221;28;20388;-83
2021/05/23 06:22:11;;;;;;;2.67;1.67;;;14.90;81.80;;;;;;5006248;28;20204;-82
2021/05/23 06:24:39;;;;;;;2.40;1.83;;;15.10;81.70;;;;;;5007345;28;20258;-83
2021/05/23 06:27:07;;;;;;;2.70;1.70;;;15.10;81.00;;;;;;5000711;28;20684;-82
2021/05/23 06:29:36;;;;;;;3.87;2.10;;;15.20;81.40;;;;;;5001418;28;20205;-84
2021/05/23 06:32:06;;;;;;;4.37;2.00;;;15.20;81.20;;;;;;5008884;28;20251;-82
2021/05/23 06:34:34;;;;;;;2.53;1.60;;;15.40;81.40;;;;;;5015643;28;20430;-82
2021/05/23 06:37:05;;;;;;;2.43;1.70;;;15.50;80.70;;;;;;5017100;28;20203;-83
2021/05/23 06:39:34;;;;;;;3.43;1.87;;;15.50;80.80;;;;;;5015895;28;20264;-85
2021/05/23 06:42:02;;;;;;;3.23;1.70;;;15.60;79.90;;;;;;4998236;28;20237;-84
2021/05/23 06:44:30;;;;;;;2.30;1.67;;;15.50;80.60;;;;;;4990323;28;20310;-84
2021/05/23 06:46:58;;;;;;;2.27;1.70;;;15.60;80.40;;;;;;4992144;28;20203;-82
2021/05/23 06:49:26;;;;;;;2.63;1.57;;;15.70;80.10;;;;;;5000089;28;20252;-83
2021/05/23 06:51:55;;;;;;;2.50;1.70;;;15.90;80.30;;;;;;4996564;28;20450;-84
2021/05/23 06:54:23;;;;;;;2.27;1.80;;;16.10;80.00;;;;;;4988424;28;20228;-85
2021/05/23 06:56:52;;;;;;;2.83;1.90;;;16.20;79.10;;;;;;4986850;28;20219;-84
2021/05/23 06:59:20;;;;;;;2.63;1.53;;;16.20;79.30;;;;;;4992953;28;20212;-82
2021/05/23 07:01:48;;;;;;;3.83;2.13;;;16.30;79.60;;;;;;4991682;28;20218;-84
2021/05/23 07:04:17;;;;;;;2.43;1.63;;;16.40;79.40;;;;;;4988045;28;20199;-81
2021/05/23 07:06:45;;;;;;;3.00;1.83;;;16.40;79.10;;;;;;4997355;28;20227;-83
2021/05/23 07:09:16;;;;;;;3.87;1.83;;;16.50;79.50;;;;;;5008614;28;20211;-81
2021/05/23 07:11:45;;;;;;;2.33;1.60;;;16.60;79.60;;;;;;5010568;28;20254;-84
2021/05/23 07:14:15;;;;;;;2.57;1.70;;;16.80;79.00;;;;;;5000801;28;20215;-83
2021/05/23 07:16:43;;;;;;;5.60;1.77;;;16.80;78.70;;;;;;4989014;28;20204;-84
2021/05/23 07:19:14;;;;;;;1.97;1.80;;;16.70;78.10;;;;;;4986748;28;20254;-81
2021/05/23 07:21:42;;;;;;;2.50;1.23;;;16.60;78.60;;;;;;5003989;28;20204;-85
2021/05/23 07:24:11;;;;;;;3.50;1.70;;;16.70;79.00;;;;;;5001309;28;20229;-83
2021/05/23 07:26:39;;;;;;;1.57;1.47;;;16.70;78.20;;;;;;5010221;28;20228;-82
2021/05/23 07:29:10;;;;;;;4.53;1.80;;;16.70;78.50;;;;;;5005464;28;20530;-83
2021/05/23 07:31:39;;;;;;;2.10;1.43;;;16.90;79.20;;;;;;5002017;28;20196;-83
2021/05/23 07:34:07;;;;;;;1.50;1.40;;;17.00;78.60;;;;;;5003684;28;20211;-83
2021/05/23 07:36:36;;;;;;;2.83;1.60;;;17.20;78.20;;;;;;5008428;28;20227;-85
2021/05/23 07:39:04;;;;;;;1.97;1.50;;;17.40;77.70;;;;;;5004273;28;20215;-83
2021/05/23 07:41:32;;;;;;;4.40;1.53;;;17.40;77.00;;;;;;5003566;28;20196;-82
2021/05/23 07:44:01;;;;;;;1.97;1.70;;;17.40;77.30;;;;;;4994286;28;20204;-82
2021/05/23 07:46:29;;;;;;;2.03;1.40;;;17.30;77.30;;;;;;5000671;28;20250;-83
2021/05/23 07:48:58;;;;;;;1.80;1.10;;;17.40;77.40;;;;;;4991666;28;20212;-83
2021/05/23 07:51:29;;;;;;;1.40;1.30;;;17.60;76.40;;;;;;5000455;28;20314;-85
2021/05/23 07:53:57;;;;;;;3.33;1.20;;;17.60;76.40;;;;;;4993016;28;20211;-84
2021/05/23 07:56:25;;;;;;;1.70;1.30;;;17.80;76.90;;;;;;4997690;28;20803;-85
2021/05/23 07:58:53;;;;;;;2.07;1.37;;;18.00;76.90;;;;;;4993639;28;20208;-86
2021/05/23 08:01:21;;;;;;;2.70;1.40;;;17.90;75.40;;;;;;5002753;28;20206;-84
2021/05/23 08:03:49;;;;;;;3.43;1.60;;;17.80;75.60;;;;;;4994151;28;20437;-84
2021/05/23 08:06:18;;;;;;;1.80;1.17;;;17.70;75.90;;;;;;4995169;28;20282;-85
2021/05/23 08:08:46;;;;;;;2.90;1.37;;;17.90;76.80;;;;;;5006382;28;20195;-83
2021/05/23 08:11:17;;;;;;;2.77;1.60;;;17.90;75.60;;;;;;5014310;28;20176;-84
2021/05/23 08:13:45;;;;;;;2.17;1.30;;;18.00;75.20;;;;;;5015372;28;20200;-82
2021/05/23 08:16:16;;;;;;;1.83;1.37;;;17.90;74.10;;;;;;4992847;28;20630;-84
2021/05/23 08:18:44;;;;;;;1.80;1.33;;;17.80;73.90;;;;;;4996456;28;20287;-82
2021/05/23 08:21:13;;;;;;;2.43;1.23;;;17.80;74.00;;;;;;4999821;28;20208;-82
2021/05/23 08:23:43;;;;;;;1.63;1.30;;;18.00;74.40;;;;;;4993855;28;20335;-83
2021/05/23 08:26:11;;;;;;;1.53;1.13;;;18.40;74.60;;;;;;4997847;28;20227;-82
2021/05/23 08:28:40;;;;;;;1.73;1.37;;;18.60;74.90;;;;;;5004247;28;20204;-83
2021/05/23 08:31:08;;;;;;;2.10;1.43;;;18.90;74.20;;;;;;5008501;28;20238;-84
2021/05/23 08:33:35;;;;;;;2.93;1.40;;;19.10;72.80;;;;;;5009366;28;20202;-85
2021/05/23 08:36:07;;;;;;;4.93;1.47;;;19.00;72.40;;;;;;5004196;28;20223;-83
2021/05/23 08:38:36;;;;;;;3.17;1.40;;;18.80;72.30;;;;;;5002815;28;20278;-84
2021/05/23 08:41:07;;;;;;;3.90;1.20;;;18.60;71.80;;;;;;5009009;28;20537;-83
2021/05/23 08:43:36;;;;;;;5.33;1.73;;;18.50;73.00;;;;;;5009014;28;20209;-85
2021/05/23 08:46:04;;;;;;;3.10;1.53;;;18.40;73.10;;;;;;5017411;28;20240;-84
2021/05/23 08:48:33;;;;;;;2.87;1.60;;;18.40;73.30;;;;;;5019384;28;20188;-83
2021/05/23 08:51:02;;;;;;;4.03;1.67;;;18.30;73.20;;;;;;5011537;28;20263;-85
2021/05/23 08:53:30;;;;;;;1.77;1.30;;;18.30;73.60;;;;;;5007148;28;20200;-85
2021/05/23 08:55:58;;;;;;;1.60;1.50;;;18.10;73.50;;;;;;5017357;28;20207;-83
2021/05/23 08:58:28;;;;;;;1.87;1.30;;;17.90;73.30;;;;;;5002880;28;20479;-84
2021/05/23 09:00:59;;;;;;;2.93;1.23;;;17.90;73.10;;;;;;5004613;28;20274;-84
2021/05/23 09:03:27;;;;;;;4.70;1.37;;;18.00;73.30;;;;;;4999679;28;20283;-82
2021/05/23 09:05:56;;;;;;;2.00;1.10;;;18.30;73.20;;;;;;5006920;28;20233;-83
2021/05/23 09:08:26;;;;;;;1.60;1.30;;;18.50;72.50;;;;;;5004521;28;20257;-83
2021/05/23 09:10:56;;;;;;;1.67;1.00;;;18.40;72.10;;;;;;5006004;28;20203;-82
2021/05/23 09:13:32;;;;;;;2.07;1.13;;;18.40;71.90;;;;;;5011970;28;20184;-85
2021/05/23 09:16:04;;;;;;;2.77;1.37;;;18.40;72.80;;;;;;5017272;28;20250;-83
2021/05/23 09:18:40;;;;;;;2.57;1.30;;;18.50;72.70;;;;;;5006492;28;20563;-83
2021/05/23 09:21:10;;;;;;;1.50;1.17;;;18.70;72.20;;;;;;5014641;28;20212;-85
2021/05/23 09:23:47;;;;;;;1.77;1.20;;;18.70;70.70;;;;;;5010891;28;20229;-82
2021/05/23 09:26:20;;;;;;;2.77;1.40;;;18.60;71.30;;;;;;5011905;28;20433;-83
2021/05/23 09:28:51;;;;;;;1.97;1.10;;;18.60;71.40;;;;;;5011799;28;20239;-83
2021/05/23 09:31:21;;;;;;;1.37;1.10;;;18.60;72.00;;;;;;5002715;28;20208;-84
2021/05/23 09:33:52;;;;;;;2.23;1.30;;;18.80;71.10;;;;;;4999767;28;20283;-84
2021/05/23 09:36:21;;;;;;;3.17;1.30;;;18.90;71.70;;;;;;5014252;28;20191;-81
2021/05/23 09:38:54;;;;;;;1.47;1.17;;;18.50;70.00;;;;;;5023612;28;20254;-82
2021/05/23 09:41:25;;;;;;;2.90;1.10;;;18.40;70.90;;;;;;5007896;28;20972;-84
2021/05/23 09:44:13;;;;;;;1.33;1.23;;;18.30;70.80;;;;;;4992313;28;20317;-85
2021/05/23 09:46:54;;;;;;;2.40;1.20;;;18.40;71.00;;;;;;5001217;28;20219;-83
2021/05/23 09:49:23;;;;;;;1.23;1.10;;;18.70;71.20;;;;;;4991573;28;20208;-81
2021/05/23 09:51:55;;;;;;;2.87;1.23;;;18.90;70.40;;;;;;4994962;28;20204;-84
2021/05/23 09:54:24;;;;;;;1.90;1.20;;;18.80;69.60;;;;;;4992101;28;20204;-82
2021/05/23 09:56:53;;;;;;;2.80;1.37;;;18.90;70.70;;;;;;4996082;28;20208;-86
2021/05/23 09:59:24;;;;;;;1.40;1.30;;;19.00;70.30;;;;;;4996569;28;21135;-81
2021/05/23 10:02:04;;;;;;;2.63;1.30;;;19.00;69.90;;;;;;4997733;28;20629;-81
2021/05/23 10:04:34;;;;;;;2.73;1.40;;;19.10;69.50;;;;;;5002906;28;20281;-81
2021/05/23 10:07:03;;;;;;;1.40;1.10;;;18.90;69.70;;;;;;5020462;28;20219;-87
2021/05/23 10:09:32;;;;;;;3.40;1.40;;;18.80;70.80;;;;;;5009407;28;20212;-83
2021/05/23 10:12:06;;;;;;;1.47;1.37;;;18.90;71.70;;;;;;4999709;28;20208;-83
2021/05/23 10:14:35;;;;;;;3.63;1.40;;;18.80;70.00;;;;;;4998043;28;20607;-84
2021/05/23 10:17:07;;;;;;;2.43;1.30;;;18.70;71.30;;;;;;4997822;28;20321;-83
2021/05/23 10:19:36;;;;;;;1.73;1.10;;;18.60;70.80;;;;;;4996778;28;20200;-82
2021/05/23 10:22:09;;;;;;;2.20;1.20;;;18.70;71.40;;;;;;5000564;28;20214;-83
2021/05/23 10:24:41;;;;;;;2.40;1.50;;;18.60;71.40;;;;;;5006312;28;20199;-83
2021/05/23 10:27:18;;;;;;;2.23;1.33;;;18.60;71.00;;;;;;5005368;28;20524;-85
2021/05/23 10:29:49;;;;;;;2.60;1.40;;;18.60;70.60;;;;;;5002534;28;20722;-83
2021/05/23 10:32:21;;;;;;;1.20;1.13;;;18.40;69.60;;;;;;5007019;28;20210;-83
2021/05/23 10:34:50;;;;;;;1.87;1.03;;;18.40;70.20;;;;;;5010613;28;20207;-83
2021/05/23 10:37:25;;;;;;;2.47;1.43;;;18.30;70.00;;;;;;4999003;28;20200;-84
2021/05/23 10:39:55;;;;;;;1.67;1.10;;;18.40;70.40;;;;;;5006977;28;20204;-84
2021/05/23 10:42:27;;;;;;;1.07;0.90;;;18.60;71.00;;;;;;4996434;28;20203;-82
2021/05/23 10:44:57;;;;;;;1.70;1.20;;;18.90;69.80;;;;;;5002270;28;20208;-82
2021/05/23 10:47:28;;;;;;;2.03;1.20;;;19.10;69.40;;;;;;4996768;28;20227;-82
2021/05/23 10:50:00;;;;;;;1.30;1.20;;;19.20;69.60;;;;;;5001795;28;20218;-80
2021/05/23 10:52:30;;;;;;;1.57;1.13;;;19.40;68.90;;;;;;4998270;28;20227;-84
2021/05/23 10:55:02;;;;;;;1.87;1.20;;;19.60;69.60;;;;;;4991260;28;20291;-84
2021/05/23 10:57:47;;;;;;;1.63;1.20;;;19.70;68.70;;;;;;5002107;28;20207;-82
2021/05/23 11:00:21;;;;;;;1.73;1.23;;;19.70;68.50;;;;;;4996513;28;20211;-85
2021/05/23 11:02:51;;;;;;;1.50;1.10;;;19.70;68.40;;;;;;4998458;28;20310;-80
2021/05/23 11:05:24;;;;;;;2.27;1.07;;;19.30;68.00;;;;;;5017878;28;20271;-81
2021/05/23 11:07:57;;;;;;;2.63;1.40;;;19.10;68.00;;;;;;5010898;28;20219;-85
2021/05/23 11:10:27;;;;;;;1.30;1.20;;;19.10;68.40;;;;;;5010401;28;20204;-83
2021/05/23 11:12:56;;;;;;;2.03;0.93;;;19.10;67.70;;;;;;4999875;28;20215;-82
2021/05/23 11:15:42;;;;;;;1.63;1.00;;;19.20;67.80;;;;;;4999379;28;20222;-81
2021/05/23 11:18:14;;;;;;;2.93;1.17;;;19.30;68.30;;;;;;5001873;28;20192;-85
2021/05/23 11:20:42;;;;;;;2.03;1.10;;;19.40;67.70;;;;;;4991244;28;20286;-85
2021/05/23 11:23:11;;;;;;;3.77;1.23;;;19.50;67.60;;;;;;4998518;28;20207;-85
2021/05/23 11:25:39;;;;;;;1.40;1.00;;;19.60;66.60;;;;;;4998724;28;20204;-83
2021/05/23 11:28:08;;;;;;;1.60;1.20;;;19.90;67.30;;;;;;5013994;28;20244;-83
2021/05/23 11:30:39;;;;;;;1.30;1.13;;;19.70;67.30;;;;;;5008579;28;20210;-83
2021/05/23 11:33:10;;;;;;;1.80;1.30;;;19.60;66.80;;;;;;5015852;28;20452;-82
2021/05/23 11:35:40;;;;;;;4.27;1.10;;;19.50;66.70;;;;;;5010827;28;20196;-86
2021/05/23 11:38:09;;;;;;;1.00;1.00;;;19.40;66.20;;;;;;5008683;28;20232;-83
2021/05/23 11:40:41;;;;;;;3.40;1.37;;;19.30;65.80;;;;;;5010445;28;20336;-83
2021/05/23 11:43:12;;;;;;;2.67;1.20;;;19.30;66.80;;;;;;5002302;28;20196;-84
2021/05/23 11:45:55;;;;;;;3.27;1.10;;;19.50;66.60;;;;;;4995485;28;20285;-83
2021/05/23 11:48:36;;;;;;;2.50;1.10;;;19.70;66.90;;;;;;4993636;28;20223;-84
2021/05/23 11:51:06;;;;;;;1.20;1.10;;;19.90;65.90;;;;;;5002240;28;20211;-84
2021/05/23 11:53:39;;;;;;;1.23;1.13;;;19.80;65.20;;;;;;5002091;28;20199;-84
2021/05/23 11:56:09;;;;;;;1.20;1.00;;;19.90;65.60;;;;;;5011485;28;20218;-85
2021/05/23 11:58:37;;;;;;;0.97;0.90;;;20.10;65.80;;;;;;5013745;28;20195;-83
2021/05/23 12:01:21;;;;;;;1.50;0.90;;;20.10;65.40;;;;;;5017463;28;20215;-82
2021/05/23 12:03:57;;;;;;;2.07;1.20;;;20.10;66.10;;;;;;5003511;28;20274;-82
2021/05/23 12:06:27;;;;;;;1.37;1.03;;;19.90;64.70;;;;;;5001996;28;20231;-85
2021/05/23 12:09:21;;;;;;;1.10;1.10;;;19.80;64.70;;;;;;4998883;28;20212;-81
2021/05/23 12:11:55;;;;;;;2.27;1.30;;;19.60;64.10;;;;;;4979783;28;20291;-82
2021/05/23 12:14:31;;;;;;;1.73;1.00;;;19.30;64.90;;;;;;5000673;28;20224;-85
2021/05/23 12:17:03;;;;;;;1.10;1.00;;;19.20;65.30;;;;;;5008931;28;20204;-84
2021/05/23 12:19:47;;;;;;;1.30;1.13;;;19.20;65.70;;;;;;5012105;28;20199;-84
2021/05/23 12:22:21;;;;;;;1.43;1.00;;;19.40;65.70;;;;;;5001487;28;20632;-83
2021/05/23 12:24:53;;;;;;;2.17;1.30;;;19.60;66.40;;;;;;5002811;28;20702;-84
2021/05/23 12:27:27;;;;;;;5.80;1.37;;;19.50;66.00;;;;;;5006738;28;20235;-84
2021/05/23 12:30:08;;;;;;;3.00;1.30;;;19.60;66.00;;;;;;5024188;28;20215;-86
2021/05/23 12:32:47;;;;;;;2.00;1.13;;;19.70;66.10;;;;;;5021641;28;20180;-84
2021/05/23 12:35:18;;;;;;;1.00;0.90;;;19.90;63.30;;;;;;5011795;28;20433;-81
2021/05/23 12:37:53;;;;;;;1.33;1.23;;;19.70;61.00;;;;;;5004952;28;20973;-85
2021/05/23 12:40:25;;;;;;;1.57;1.00;;;19.80;62.10;;;;;;5008119;28;20584;-83
2021/05/23 12:42:54;;;;;;;1.13;0.93;;;19.60;62.60;;;;;;5003476;28;20752;-85
2021/05/23 12:45:23;;;;;;;1.90;1.00;;;20.00;62.40;;;;;;5006385;28;20753;-82
2021/05/23 12:47:54;;;;;;;1.07;0.97;;;20.20;63.20;;;;;;5009471;28;20247;-82
2021/05/23 12:50:32;;;;;;;2.43;1.10;;;20.30;62.70;;;;;;5009178;28;20195;-82
2021/05/23 12:53:01;;;;;;;0.80;0.80;;;20.40;62.40;;;;;;5019582;28;20210;-84
2021/05/23 12:55:30;;;;;;;1.23;0.90;;;20.30;62.70;;;;;;5020744;28;20191;-85
2021/05/23 12:58:01;;;;;;;1.10;0.90;;;20.40;62.80;;;;;;5027543;28;20188;-84
2021/05/23 13:00:50;;;;;;;0.80;0.73;;;20.50;62.60;;;;;;5005233;28;20212;-84
2021/05/23 13:03:20;;;;;;;1.47;1.00;;;20.60;63.20;;;;;;5007104;28;20212;-81
2021/05/23 13:06:00;;;;;;;2.00;1.23;;;20.80;62.50;;;;;;5002049;28;20267;-81
2021/05/23 13:08:32;;;;;;;1.50;0.98;;;20.70;61.70;;;;;;5007602;28;20255;-85